This is the latest recevied weather packets stored in our database for station/object K5YNC. If no packets are shown the sender has not sent any weather packets the latest 10 day(s).
| Time | Temp. | Humidity | Pressure | Rain* | Wind** | Luminosity | Snow |
|---|---|---|---|---|---|---|---|
| 1777836090 | 27.78° C | 34% | 1019.7 hPa | 0 mm | - | 828 W/m² | - |
| 1777835787 | 27.78° C | 34% | 1019.8 hPa | 0 mm | - | 816 W/m² | - |
| 1777835484 | 27.22° C | 37% | 1020 hPa | 0 mm | - | 842 W/m² | - |
| 1777835181 | 27.22° C | 33% | 1020 hPa | 0 mm | - | 888 W/m² | - |
| 1777834878 | 27.78° C | 34% | 1020 hPa | 0 mm | - | 212 W/m² | - |
| 1777834574 | 27.78° C | 34% | 1020.1 hPa | 0 mm | - | 865 W/m² | - |
| 1777834274 | 26.67° C | 40% | 1020.3 hPa | 0 mm | - | 882 W/m² | - |
| 1777833970 | 26.67° C | 38% | 1020.3 hPa | 0 mm | - | 945 W/m² | - |
| 1777833666 | 27.22° C | 36% | 1020.2 hPa | 0 mm | - | 923 W/m² | - |
| 1777833363 | 27.22° C | 39% | 1020.4 hPa | 0 mm | - | 902 W/m² | - |
| 1777833061 | 26.67° C | 39% | 1020.4 hPa | 0 mm | - | 854 W/m² | - |
| 1777832758 | 26.67° C | 38% | 1020.6 hPa | 0 mm | - | 169 W/m² | - |
| 1777832456 | 27.22° C | 37% | 1020.9 hPa | 0 mm | - | 750 W/m² | - |
| 1777832153 | 26.67° C | 42% | 1020.7 hPa | 0 mm | - | 820 W/m² | - |
| 1777831850 | 27.22° C | 38% | 1020.8 hPa | 0 mm | - | 816 W/m² | - |
| 1777831547 | 27.78° C | 39% | 1020.9 hPa | 0 mm | - | 818 W/m² | - |
| 1777831244 | 26.67° C | 40% | 1021 hPa | 0 mm | - | 809 W/m² | - |
| 1777830941 | 26.67° C | 41% | 1021.2 hPa | 0 mm | - | 802 W/m² | - |
| 1777830638 | 26.67° C | 39% | 1021.3 hPa | 0 mm | - | 804 W/m² | - |
| 1777830336 | 26.67° C | 42% | 1021.4 hPa | 0 mm | - | 797 W/m² | - |
| 1777830032 | 26.67° C | 42% | 1021.4 hPa | 0 mm | - | 792 W/m² | - |
| 1777829727 | 27.22° C | 42% | 1021.5 hPa | 0 mm | - | 786 W/m² | - |
| 1777829424 | 26.67° C | 45% | 1021.5 hPa | 0 mm | - | 781 W/m² | - |
| 1777829121 | 26.67° C | 44% | 1021.7 hPa | 0 mm | - | 776 W/m² | - |
| 1777828818 | 26.67° C | 45% | 1021.7 hPa | 0 mm | - | 769 W/m² | - |
* Rain latest hour (hover to see other rain measurements)
** Current wind speed in m/s (hover to see current wind gust speed)